Time;durP1;ratioP1;P1;durP2;ratioP2;P2;SDS_P1;SDS_P2;PMS_P1;PMS_P2;Temp;Humidity;BMP_temperature;BMP_pressure;BME280_temperature;BME280_humidity;BME280_pressure;Samples;Min_cycle;Max_cycle;Signal;HPM_P1;HPM_P2
2021/03/29 00:01:49;;;;;;;4.10;1.70;;;;;;;13.57;40.20;101266.53;5035540;28;20025;-63
2021/03/29 00:04:16;;;;;;;8.13;1.90;;;;;;;13.55;40.46;101260.53;5036498;28;20383;-63
2021/03/29 00:06:43;;;;;;;4.68;1.80;;;;;;;13.52;40.39;101258.31;5036145;28;20041;-64
2021/03/29 00:09:09;;;;;;;3.97;1.58;;;;;;;13.49;40.27;101258.88;5035940;28;20643;-63
2021/03/29 00:11:38;;;;;;;6.22;1.80;;;;;;;13.46;40.30;101254.78;5035385;28;20037;-63
2021/03/29 00:14:03;;;;;;;21.08;2.13;;;;;;;13.43;40.40;101257.25;5036195;28;20064;-63
2021/03/29 00:16:30;;;;;;;6.00;1.83;;;;;;;13.41;40.46;101253.97;5034785;28;20030;-63
2021/03/29 00:18:56;;;;;;;6.38;1.88;;;;;;;13.35;40.42;101245.72;5035100;28;20040;-63
2021/03/29 00:21:22;;;;;;;4.88;1.55;;;;;;;13.28;40.63;101244.34;5035027;28;20030;-64
2021/03/29 00:23:47;;;;;;;4.75;1.70;;;;;;;13.28;40.64;101247.09;5035258;28;20060;-64
2021/03/29 00:26:13;;;;;;;9.57;2.00;;;;;;;13.05;40.75;101220.03;5035381;28;20029;-63
2021/03/29 00:28:39;;;;;;;4.47;1.70;;;;;;;13.20;40.73;101240.28;5035250;28;20033;-61
2021/03/29 00:31:11;;;;;;;5.97;1.88;;;;;;;13.16;40.91;101239.16;5035467;28;20025;-63
2021/03/29 00:33:38;;;;;;;6.25;2.00;;;;;;;13.13;40.95;101245.22;5035569;28;20398;-63
2021/03/29 00:36:05;;;;;;;4.88;1.63;;;;;;;13.09;41.16;101233.16;5035620;28;20032;-63
2021/03/29 00:38:31;;;;;;;4.10;1.60;;;;;;;13.04;41.39;101237.56;5035176;28;20063;-65
2021/03/29 00:41:02;;;;;;;5.05;2.05;;;;;;;13.01;41.63;101237.28;5035104;28;20547;-63
2021/03/29 00:43:32;;;;;;;7.20;2.20;;;;;;;12.97;41.50;101230.69;5036351;28;20374;-63
2021/03/29 00:46:00;;;;;;;6.80;2.25;;;;;;;12.90;41.78;101230.97;5035045;28;20051;-63
2021/03/29 00:48:28;;;;;;;9.02;2.53;;;;;;;12.88;41.74;101233.19;5036261;28;20061;-63
2021/03/29 00:51:17;;;;;;;6.80;3.10;;;;;;;12.85;41.84;101234.53;5037862;28;20026;-63
2021/03/29 00:53:49;;;;;;;7.75;2.63;;;;;;;12.80;41.84;101230.97;5037620;28;20022;-63
2021/03/29 00:56:15;;;;;;;6.55;2.38;;;;;;;12.74;41.92;101230.97;5049984;28;20063;-63
2021/03/29 00:58:43;;;;;;;5.32;2.10;;;;;;;12.72;42.16;101232.34;5048230;28;20135;-64
2021/03/29 01:01:18;;;;;;;6.78;2.42;;;;;;;12.69;42.35;101236.44;5038062;28;20040;-63
2021/03/29 01:03:58;;;;;;;6.53;2.42;;;;;;;12.67;42.38;101229.59;5035630;28;20021;-63
2021/03/29 01:06:27;;;;;;;5.15;2.50;;;;;;;12.65;42.20;101231.78;5031259;28;20022;-63
2021/03/29 01:08:54;;;;;;;5.10;2.28;;;;;;;12.61;42.68;101217.81;5034854;28;20025;-63
2021/03/29 01:11:24;;;;;;;4.80;2.10;;;;;;;12.58;42.87;101226.56;5034785;28;20025;-63
2021/03/29 01:14:09;;;;;;;5.45;2.03;;;;;;;12.56;42.87;101231.50;5041138;28;20378;-63
2021/03/29 01:16:44;;;;;;;6.10;1.85;;;;;;;12.50;43.12;101219.72;5033431;28;20029;-62
2021/03/29 01:19:15;;;;;;;5.38;1.85;;;;;;;12.49;43.33;101225.47;5035430;28;20441;-63
2021/03/29 01:21:43;;;;;;;7.00;1.67;;;;;;;12.47;43.30;101222.19;5034521;28;20057;-64
2021/03/29 01:24:40;;;;;;;4.88;1.60;;;;;;;12.46;43.51;101215.06;5035995;28;20036;-63
2021/03/29 01:27:06;;;;;;;4.30;1.65;;;;;;;12.42;43.46;101217.53;5034756;28;20287;-63
2021/03/29 01:29:31;;;;;;;5.93;1.63;;;;;;;12.38;43.70;101214.53;5036944;28;20038;-64
2021/03/29 01:32:00;;;;;;;5.43;1.67;;;;;;;12.40;43.76;101211.50;5038528;28;20029;-63
2021/03/29 01:34:27;;;;;;;7.50;2.10;;;;;;;12.35;43.88;101215.06;5039041;28;20065;-63
2021/03/29 01:36:53;;;;;;;4.38;1.55;;;;;;;12.35;44.26;101216.97;5029533;28;20036;-63
2021/03/29 01:39:18;;;;;;;9.25;2.38;;;;;;;12.33;44.24;101213.69;5039808;28;20096;-63
2021/03/29 01:41:45;;;;;;;6.57;1.80;;;;;;;12.30;44.59;101206.84;5038286;28;20021;-63
2021/03/29 01:44:10;;;;;;;5.57;2.08;;;;;;;12.25;44.87;101209.56;5038476;28;20025;-63
2021/03/29 01:46:36;;;;;;;9.57;1.88;;;;;;;12.18;44.67;101195.31;5039639;28;20033;-63
2021/03/29 01:49:02;;;;;;;6.22;2.40;;;;;;;12.22;44.86;101204.66;5038961;28;20025;-65
2021/03/29 01:51:29;;;;;;;4.80;1.70;;;;;;;11.99;45.22;101164.94;5038142;28;20033;-63
2021/03/29 01:53:56;;;;;;;4.95;1.70;;;;;;;12.18;45.60;101192.59;5041091;28;20387;-62
2021/03/29 01:56:21;;;;;;;4.70;1.48;;;;;;;12.16;45.59;101192.88;5038170;28;20021;-63
2021/03/29 01:58:47;;;;;;;9.73;2.10;;;;;;;12.12;45.82;101192.59;5038614;28;20036;-64
2021/03/29 02:01:12;;;;;;;6.90;1.50;;;;;;;12.02;46.15;101181.63;5037950;28;20044;-63
2021/03/29 02:03:40;;;;;;;4.15;1.40;;;;;;;12.08;46.25;101191.47;5038541;28;20497;-63
2021/03/29 02:06:07;;;;;;;5.65;2.00;;;;;;;12.05;46.44;101181.09;5037008;28;20036;-63
2021/03/29 02:08:35;;;;;;;6.70;2.10;;;;;;;12.03;46.71;101183.25;5038060;28;20029;-63
2021/03/29 02:11:02;;;;;;;4.70;1.95;;;;;;;11.99;47.12;101184.88;5037267;28;20030;-65
2021/03/29 02:13:34;;;;;;;7.57;1.85;;;;;;;11.98;47.45;101186.00;5036991;28;20048;-63
2021/03/29 02:16:03;;;;;;;5.25;1.80;;;;;;;11.98;47.40;101187.88;5036688;28;20036;-63
2021/03/29 02:18:36;;;;;;;9.25;2.17;;;;;;;11.96;48.01;101190.88;5038090;28;20022;-63
2021/03/29 02:21:07;;;;;;;7.57;2.25;;;;;;;11.92;47.89;101179.66;5037664;28;20033;-64
2021/03/29 02:23:33;;;;;;;5.78;1.90;;;;;;;11.91;48.45;101174.44;5037764;28;20369;-63
2021/03/29 02:26:00;;;;;;;8.82;2.20;;;;;;;11.88;48.59;101172.25;5037215;28;20444;-63
2021/03/29 02:28:26;;;;;;;8.65;2.30;;;;;;;11.86;48.57;101171.69;5038093;28;20029;-63
2021/03/29 02:30:52;;;;;;;6.40;2.40;;;;;;;11.85;49.07;101168.16;5037347;28;20052;-64
2021/03/29 02:33:19;;;;;;;6.32;2.00;;;;;;;11.73;49.27;101154.72;5037415;28;20021;-63
2021/03/29 02:35:45;;;;;;;8.27;2.00;;;;;;;11.81;49.25;101167.88;5037810;28;20021;-63
2021/03/29 02:38:15;;;;;;;4.28;1.85;;;;;;;11.79;49.52;101167.31;5038012;28;20065;-64
2021/03/29 02:40:42;;;;;;;5.72;1.95;;;;;;;11.77;50.11;101166.75;5036865;28;20078;-64
2021/03/29 02:43:10;;;;;;;6.00;2.03;;;;;;;11.76;50.33;101164.28;5038884;28;20026;-63
2021/03/29 02:45:41;;;;;;;4.03;1.95;;;;;;;11.77;50.62;101164.00;5037296;28;20032;-63
2021/03/29 02:48:09;;;;;;;8.90;2.28;;;;;;;11.75;50.75;101158.00;5036777;28;20040;-63
2021/03/29 02:50:38;;;;;;;7.97;1.95;;;;;;;11.72;50.62;101161.28;5037687;28;20030;-63
2021/03/29 02:53:09;;;;;;;5.30;1.92;;;;;;;11.63;50.86;101150.03;5037479;28;20036;-63
2021/03/29 02:55:36;;;;;;;9.25;2.25;;;;;;;11.67;51.03;101161.25;5036864;28;20417;-63
2021/03/29 02:58:05;;;;;;;6.20;2.00;;;;;;;11.65;51.18;101160.72;5036214;28;20025;-64
2021/03/29 03:00:34;;;;;;;3.95;1.88;;;;;;;11.61;51.77;101154.94;5037597;28;20390;-63
2021/03/29 03:03:01;;;;;;;5.35;2.05;;;;;;;11.61;51.55;101165.03;5040887;28;20064;-63
2021/03/29 03:05:32;;;;;;;4.68;1.80;;;;;;;11.59;51.79;101153.56;5036996;28;20402;-63
2021/03/29 03:07:57;;;;;;;5.90;1.80;;;;;;;11.56;51.92;101146.72;5036589;28;20053;-63
2021/03/29 03:10:23;;;;;;;5.32;2.05;;;;;;;11.55;52.11;101153.28;5036807;28;20057;-64
2021/03/29 03:12:50;;;;;;;7.28;2.10;;;;;;;11.50;52.19;101148.59;5036283;28;20017;-63
2021/03/29 03:15:27;;;;;;;5.43;2.10;;;;;;;11.54;52.43;101156.28;5037375;28;20026;-63
2021/03/29 03:17:55;;;;;;;4.35;1.80;;;;;;;11.49;52.17;101154.34;5036380;28;20072;-63
2021/03/29 03:20:21;;;;;;;10.68;2.95;;;;;;;11.46;52.55;101161.16;5036737;28;20017;-64
2021/03/29 03:22:53;;;;;;;7.65;2.33;;;;;;;11.43;52.49;101149.94;5036734;28;20033;-64
2021/03/29 03:25:22;;;;;;;11.95;4.72;;;;;;;11.41;52.80;101155.66;5036924;28;20029;-63
2021/03/29 03:27:48;;;;;;;21.75;6.72;;;;;;;11.39;52.91;101157.03;5036541;28;20029;-64
2021/03/29 03:30:23;;;;;;;22.17;7.95;;;;;;;11.36;53.11;101160.31;5036502;28;20047;-63
2021/03/29 03:32:50;;;;;;;9.02;3.92;;;;;;;11.33;52.78;101158.88;5036868;28;20032;-63
2021/03/29 03:35:18;;;;;;;7.35;2.85;;;;;;;11.30;52.77;101159.44;5036577;28;20104;-64
2021/03/29 03:37:50;;;;;;;6.63;2.78;;;;;;;11.28;53.12;101154.22;5036453;28;20397;-63
2021/03/29 03:40:19;;;;;;;5.88;2.33;;;;;;;11.26;53.08;101161.03;5037812;28;20040;-65
2021/03/29 03:42:44;;;;;;;9.10;1.90;;;;;;;11.25;52.78;101160.22;5036221;28;20029;-63
2021/03/29 03:45:11;;;;;;;7.05;2.13;;;;;;;11.24;53.10;101168.69;5037812;28;20022;-63
2021/03/29 03:47:39;;;;;;;5.25;1.85;;;;;;;11.21;53.13;101161.84;5035477;28;20036;-63
2021/03/29 03:50:08;;;;;;;7.85;2.30;;;;;;;11.20;53.26;101159.38;5036805;28;20120;-63
2021/03/29 03:52:35;;;;;;;4.85;1.80;;;;;;;11.20;52.99;101164.84;5035340;28;20044;-63
2021/03/29 03:55:00;;;;;;;7.68;2.22;;;;;;;11.18;53.05;101162.38;5036044;28;20039;-64
2021/03/29 03:57:27;;;;;;;7.82;2.00;;;;;;;11.17;53.31;101161.53;5035828;28;20022;-63
2021/03/29 03:59:53;;;;;;;8.25;2.50;;;;;;;11.13;53.12;101163.16;5039856;28;20349;-63
2021/03/29 04:02:18;;;;;;;4.00;1.90;;;;;;;11.14;52.80;101162.09;5036522;28;20067;-63
2021/03/29 04:04:44;;;;;;;5.07;2.05;;;;;;;11.13;52.88;101159.59;5036329;28;20061;-63
2021/03/29 04:07:09;;;;;;;6.72;1.92;;;;;;;11.11;52.97;101161.78;5036123;28;20386;-63
2021/03/29 04:12:08;;;;;;;7.93;2.05;;;;;;;11.05;53.08;101160.94;5039305;28;20029;-63
2021/03/29 04:14:33;;;;;;;4.53;1.90;;;;;;;11.03;53.05;101155.72;5055973;28;20025;-63
2021/03/29 04:16:58;;;;;;;10.43;1.80;;;;;;;11.03;52.88;101154.91;5037055;28;20027;-63
2021/03/29 04:19:24;;;;;;;7.38;1.77;;;;;;;11.01;52.53;101166.09;5036362;28;20029;-63
2021/03/29 04:21:49;;;;;;;5.82;1.98;;;;;;;10.99;52.65;101159.25;5035707;28;20017;-63
2021/03/29 04:24:15;;;;;;;5.70;1.80;;;;;;;10.97;52.56;101161.44;5035871;28;20022;-63
2021/03/29 04:26:42;;;;;;;5.10;1.92;;;;;;;10.96;52.59;101162.50;5035642;28;20060;-63
2021/03/29 04:29:07;;;;;;;7.80;2.35;;;;;;;10.95;52.66;101158.13;5035265;28;20073;-64
2021/03/29 04:31:33;;;;;;;6.10;1.90;;;;;;;10.74;52.86;101128.00;5035085;28;20037;-63
2021/03/29 04:33:59;;;;;;;5.88;2.08;;;;;;;10.92;52.79;101156.75;5035682;28;20052;-63
2021/03/29 04:36:24;;;;;;;7.25;2.03;;;;;;;10.90;53.15;101155.38;5035780;28;20025;-63
2021/03/29 04:38:49;;;;;;;7.97;2.03;;;;;;;10.90;53.31;101160.84;5036103;28;20013;-63
2021/03/29 04:41:15;;;;;;;7.53;1.65;;;;;;;10.75;53.24;101140.50;5034958;28;20017;-63
2021/03/29 04:43:40;;;;;;;7.03;1.92;;;;;;;10.89;53.24;101161.91;5035850;28;20029;-63
2021/03/29 04:46:06;;;;;;;9.52;2.38;;;;;;;10.87;53.60;101162.16;5035273;28;20021;-63
2021/03/29 04:48:31;;;;;;;6.82;1.83;;;;;;;10.82;53.44;101151.22;5036256;28;20112;-65
2021/03/29 04:50:56;;;;;;;5.07;1.80;;;;;;;10.87;53.76;101153.97;5035275;28;20028;-63
2021/03/29 04:53:22;;;;;;;5.13;2.08;;;;;;;10.77;54.36;101140.28;5035352;28;20023;-63
2021/03/29 04:55:47;;;;;;;7.88;2.60;;;;;;;10.88;54.16;101152.06;5034899;28;20025;-63
2021/03/29 04:58:13;;;;;;;7.65;2.05;;;;;;;10.87;54.22;101162.16;5035822;28;20048;-64
2021/03/29 05:00:38;;;;;;;5.68;1.70;;;;;;;10.86;54.47;101158.63;5034995;28;20042;-63
2021/03/29 05:03:04;;;;;;;7.18;1.90;;;;;;;10.86;54.73;101160.53;5051550;28;20020;-63
2021/03/29 05:05:29;;;;;;;5.28;1.70;;;;;;;10.85;55.16;101158.88;5040440;28;20018;-63
2021/03/29 05:07:54;;;;;;;5.95;2.25;;;;;;;10.84;54.98;101160.78;5038598;28;20390;-63
2021/03/29 05:10:20;;;;;;;5.97;2.30;;;;;;;10.85;55.06;101170.59;5038924;28;20494;-63
2021/03/29 05:12:45;;;;;;;9.57;2.22;;;;;;;10.72;55.44;101141.06;5037743;28;20033;-64
2021/03/29 05:15:11;;;;;;;7.50;2.17;;;;;;;10.82;55.45;101170.31;5039497;28;20136;-64
2021/03/29 05:17:37;;;;;;;8.60;2.17;;;;;;;10.84;55.91;101173.59;5038721;28;20104;-63
2021/03/29 05:20:04;;;;;;;6.30;2.42;;;;;;;10.80;55.88;101165.13;5038737;28;20131;-63
2021/03/29 05:22:29;;;;;;;10.68;3.80;;;;;;;10.78;56.33;101170.00;5039042;28;20017;-64
2021/03/29 05:24:55;;;;;;;7.68;3.00;;;;;;;10.84;56.74;101166.22;5039421;28;20039;-63
2021/03/29 05:27:20;;;;;;;11.07;3.03;;;;;;;10.84;56.60;101158.06;5038970;28;20032;-64
2021/03/29 05:29:47;;;;;;;9.57;3.10;;;;;;;10.82;56.90;101154.78;5038075;28;20049;-65
2021/03/29 05:32:21;;;;;;;6.30;3.00;;;;;;;10.65;57.36;101129.56;5038993;28;20029;-64
2021/03/29 05:34:48;;;;;;;6.88;3.33;;;;;;;10.83;57.51;101158.31;5037993;28;20057;-65
2021/03/29 05:37:16;;;;;;;7.20;2.60;;;;;;;10.82;57.90;101167.59;5038372;28;20104;-64
2021/03/29 05:39:43;;;;;;;5.70;2.30;;;;;;;10.81;57.73;101150.41;5039259;28;20382;-64
2021/03/29 05:42:09;;;;;;;7.43;3.00;;;;;;;10.63;58.05;101139.88;5040225;28;20017;-64
2021/03/29 05:44:36;;;;;;;6.90;2.75;;;;;;;10.80;58.51;101165.13;5038266;28;20030;-64
2021/03/29 05:47:02;;;;;;;6.47;2.90;;;;;;;10.80;58.41;101167.84;5038879;28;20030;-65
2021/03/29 05:49:30;;;;;;;9.48;2.60;;;;;;;10.76;59.06;101157.72;5038553;28;20021;-63
2021/03/29 05:51:56;;;;;;;7.75;2.85;;;;;;;10.79;59.29;101174.38;5039098;28;20410;-63
2021/03/29 05:54:21;;;;;;;7.88;2.67;;;;;;;10.81;59.16;101179.56;5038179;28;20379;-63
2021/03/29 05:56:49;;;;;;;7.13;2.85;;;;;;;10.80;59.59;101176.03;5038621;28;20094;-63
2021/03/29 05:59:20;;;;;;;5.95;2.38;;;;;;;10.82;59.94;101182.06;5038461;28;20087;-63
2021/03/29 06:01:51;;;;;;;7.68;2.58;;;;;;;10.63;60.04;101153.53;5034672;28;20109;-65
2021/03/29 06:04:41;;;;;;;7.30;2.70;;;;;;;10.88;59.92;101188.34;5041285;28;20037;-64
2021/03/29 06:07:17;;;;;;;6.93;2.70;;;;;;;10.89;60.59;101192.72;5036549;28;20029;-63
2021/03/29 06:09:44;;;;;;;7.65;2.75;;;;;;;10.90;60.43;101188.13;5037921;28;20029;-63
2021/03/29 06:12:11;;;;;;;6.75;2.65;;;;;;;10.93;60.38;101191.16;5037860;28;20022;-64
2021/03/29 06:14:37;;;;;;;9.93;2.40;;;;;;;10.96;60.38;101195.25;5037339;28;20041;-64
2021/03/29 06:17:04;;;;;;;7.35;2.55;;;;;;;10.99;60.33;101206.47;5037931;28;20401;-64
2021/03/29 06:19:46;;;;;;;8.52;2.95;;;;;;;11.03;60.64;101204.03;5038410;28;20071;-63
2021/03/29 06:22:13;;;;;;;9.50;2.97;;;;;;;11.05;60.63;101201.88;5037749;28;20025;-64
2021/03/29 06:25:07;;;;;;;6.63;2.75;;;;;;;11.11;60.77;101208.19;5038053;28;20033;-63
2021/03/29 06:27:56;;;;;;;9.15;3.08;;;;;;;11.13;60.55;101204.09;5030568;28;20037;-63
2021/03/29 06:30:27;;;;;;;7.90;2.50;;;;;;;11.16;60.58;101203.56;5037807;28;20125;-64
2021/03/29 06:33:18;;;;;;;5.53;2.15;;;;;;;11.21;60.45;101213.69;5038137;28;20045;-63
2021/03/29 06:35:52;;;;;;;7.20;2.60;;;;;;;11.10;61.08;101179.25;5037672;28;20033;-63
2021/03/29 06:38:27;;;;;;;14.13;3.10;;;;;;;11.29;60.83;101206.94;5043307;28;20104;-64
2021/03/29 06:40:58;;;;;;;7.55;2.28;;;;;;;11.29;60.99;101196.81;5035341;28;20036;-63
2021/03/29 06:43:37;;;;;;;8.10;2.40;;;;;;;11.39;60.83;101211.63;5038135;28;20022;-63
2021/03/29 06:46:09;;;;;;;6.90;2.60;;;;;;;11.43;60.86;101216.31;5039763;28;20054;-64
2021/03/29 06:48:36;;;;;;;5.32;2.22;;;;;;;11.48;60.99;101213.63;5047179;28;20033;-64
2021/03/29 06:51:08;;;;;;;9.32;2.22;;;;;;;11.52;61.01;101229.47;5037370;28;20044;-64
2021/03/29 06:53:34;;;;;;;12.02;2.70;;;;;;;11.56;60.63;101216.94;5037509;28;20025;-63
2021/03/29 06:56:19;;;;;;;8.52;3.03;;;;;;;11.63;60.86;101225.72;5039952;28;20040;-63
2021/03/29 06:58:45;;;;;;;11.10;2.40;;;;;;;11.64;60.35;101230.09;5037711;28;20021;-63
2021/03/29 07:01:18;;;;;;;6.15;2.22;;;;;;;11.68;60.56;101223.00;5036211;28;20025;-63
2021/03/29 07:03:45;;;;;;;5.95;2.20;;;;;;;11.57;60.33;101204.91;5037345;28;20033;-64
2021/03/29 07:06:13;;;;;;;6.50;2.20;;;;;;;11.76;60.00;101227.13;5028158;28;20029;-64
2021/03/29 07:08:42;;;;;;;4.63;1.80;;;;;;;11.68;60.00;101216.72;5036773;28;20098;-63
2021/03/29 07:11:08;;;;;;;7.82;2.45;;;;;;;11.85;59.95;101239.19;5036681;28;20064;-63
2021/03/29 07:13:35;;;;;;;7.75;2.10;;;;;;;11.91;60.12;101223.63;5037367;28;20021;-63
2021/03/29 07:16:01;;;;;;;9.95;2.47;;;;;;;11.96;60.14;101229.13;5036824;28;20068;-63
2021/03/29 07:18:27;;;;;;;9.52;2.53;;;;;;;12.02;59.83;101228.09;5037315;28;20540;-63
2021/03/29 07:20:54;;;;;;;8.32;2.15;;;;;;;11.95;59.63;101211.09;5044957;28;20489;-63
2021/03/29 07:23:20;;;;;;;5.32;1.60;;;;;;;12.14;59.50;101227.03;5036776;28;20025;-63
2021/03/29 07:25:46;;;;;;;7.32;2.10;;;;;;;12.19;59.36;101227.84;5035608;28;20025;-64
2021/03/29 07:28:12;;;;;;;4.28;1.70;;;;;;;12.26;59.28;101235.81;5035408;28;20512;-64
2021/03/29 07:30:48;;;;;;;4.60;2.10;;;;;;;12.34;59.31;101234.47;5047054;28;20045;-63
2021/03/29 07:33:15;;;;;;;3.95;1.88;;;;;;;12.39;58.91;101239.94;5038727;28;20025;-65
2021/03/29 07:35:55;;;;;;;7.20;2.38;;;;;;;12.47;58.90;101246.81;5037786;28;20041;-64
2021/03/29 07:38:26;;;;;;;5.18;2.33;;;;;;;12.52;58.59;101238.59;5036719;28;20383;-64
2021/03/29 07:40:55;;;;;;;6.85;2.75;;;;;;;12.58;58.61;101243.81;5039424;28;20021;-64
2021/03/29 07:43:28;;;;;;;5.97;2.08;;;;;;;12.66;58.31;101249.84;5037188;28;20028;-64
2021/03/29 07:46:04;;;;;;;10.13;3.00;;;;;;;12.70;58.33;101254.50;5037148;28;20035;-64
2021/03/29 07:48:46;;;;;;;6.78;2.40;;;;;;;12.78;57.86;101249.59;5024448;28;20398;-64
2021/03/29 07:51:14;;;;;;;8.25;2.33;;;;;;;12.80;57.69;101247.41;5033377;28;20021;-64
2021/03/29 07:53:52;;;;;;;6.75;2.08;;;;;;;12.87;57.72;101256.16;5036753;28;20033;-64
2021/03/29 07:56:29;;;;;;;6.72;2.53;;;;;;;12.94;57.74;101251.22;5036081;28;20025;-64
2021/03/29 07:58:55;;;;;;;7.22;2.53;;;;;;;12.80;57.57;101228.25;5038545;28;20032;-64
2021/03/29 08:01:20;;;;;;;8.55;2.85;;;;;;;13.02;57.65;101250.69;5047851;28;20026;-64
2021/03/29 08:03:48;;;;;;;8.57;2.58;;;;;;;13.06;57.51;101257.25;5036621;28;20025;-66
2021/03/29 08:06:39;;;;;;;11.65;3.28;;;;;;;13.15;57.40;101253.94;5045405;28;20112;-64
2021/03/29 08:09:11;;;;;;;11.80;5.47;;;;;;;13.20;57.01;101263.00;5041486;28;20063;-64
2021/03/29 08:11:50;;;;;;;10.70;2.10;;;;;;;13.28;56.74;101252.56;5033795;28;20509;-64
2021/03/29 08:14:27;;;;;;;6.03;2.05;;;;;;;13.32;56.29;101249.00;5025257;28;20099;-65
2021/03/29 08:16:53;;;;;;;7.40;1.73;;;;;;;13.33;56.28;101250.66;5036178;28;20045;-65
2021/03/29 08:19:21;;;;;;;5.38;1.92;;;;;;;13.37;56.12;101249.03;5036937;28;20120;-64
2021/03/29 08:21:54;;;;;;;7.18;2.13;;;;;;;13.44;55.92;101258.91;5035897;28;20033;-65
2021/03/29 08:24:33;;;;;;;7.15;2.40;;;;;;;13.49;55.47;101256.13;5036205;28;20037;-64
2021/03/29 08:27:06;;;;;;;8.80;2.70;;;;;;;13.53;55.23;101255.31;5035142;28;20029;-65
2021/03/29 08:29:40;;;;;;;6.45;1.90;;;;;;;13.59;54.85;101252.56;5035982;28;20132;-65
2021/03/29 08:32:30;;;;;;;4.75;1.60;;;;;;;13.66;54.53;101272.28;5035915;28;20069;-64
2021/03/29 08:35:11;;;;;;;7.07;1.77;;;;;;;13.70;54.22;101251.41;5040049;28;20035;-64
2021/03/29 08:37:47;;;;;;;4.72;1.90;;;;;;;13.73;53.78;101258.25;5037695;28;20030;-64
2021/03/29 08:40:14;;;;;;;10.90;2.30;;;;;;;13.77;54.28;101249.19;5035660;28;20029;-63
2021/03/29 08:42:42;;;;;;;6.70;1.67;;;;;;;13.83;54.22;101266.47;5035819;28;20031;-63
2021/03/29 08:45:10;;;;;;;9.07;1.92;;;;;;;13.88;53.93;101262.88;5036062;28;20029;-64
2021/03/29 08:47:38;;;;;;;7.63;2.17;;;;;;;13.95;53.72;101260.66;5035099;28;20490;-64
2021/03/29 08:50:10;;;;;;;7.40;2.20;;;;;;;14.01;53.35;101263.09;5036083;28;20398;-65
2021/03/29 08:52:42;;;;;;;8.07;2.60;;;;;;;14.09;53.29;101266.38;5038274;28;20033;-64
2021/03/29 08:55:09;;;;;;;3.22;1.55;;;;;;;14.15;52.97;101263.31;5035522;28;20471;-64
2021/03/29 08:57:35;;;;;;;7.53;1.50;;;;;;;14.19;52.53;101257.25;5035363;28;20026;-64
2021/03/29 09:00:07;;;;;;;8.68;2.17;;;;;;;14.04;52.24;101228.81;5035935;28;20022;-64
2021/03/29 09:02:32;;;;;;;5.07;1.52;;;;;;;14.26;52.11;101261.34;5035924;28;20033;-64
2021/03/29 09:05:00;;;;;;;5.85;1.67;;;;;;;14.20;51.77;101229.56;5035291;28;20097;-64
2021/03/29 09:07:31;;;;;;;5.47;1.70;;;;;;;14.37;51.39;101255.81;5035321;28;20549;-64
2021/03/29 09:09:57;;;;;;;6.68;1.80;;;;;;;14.40;51.41;101255.22;5047516;28;20017;-64
2021/03/29 09:12:31;;;;;;;4.95;1.95;;;;;;;14.47;51.05;101266.72;5015111;28;20057;-64
2021/03/29 09:14:59;;;;;;;6.05;1.77;;;;;;;14.50;51.02;101257.13;5042845;28;20030;-64
2021/03/29 09:17:27;;;;;;;5.05;1.83;;;;;;;14.55;50.95;101265.31;5038588;28;20036;-64
2021/03/29 09:19:52;;;;;;;5.45;1.60;;;;;;;14.60;50.89;101271.59;5035772;28;20025;-65
2021/03/29 09:22:32;;;;;;;6.60;1.85;;;;;;;14.65;50.54;101265.25;5036038;28;20022;-65
2021/03/29 09:24:58;;;;;;;7.95;1.90;;;;;;;14.65;50.28;101270.72;5035552;28;20083;-64
2021/03/29 09:27:32;;;;;;;8.65;2.35;;;;;;;14.69;50.12;101263.59;5037665;28;20025;-64
2021/03/29 09:29:59;;;;;;;5.38;1.58;;;;;;;14.69;50.02;101258.09;5044442;28;20072;-64
2021/03/29 09:32:26;;;;;;;7.15;1.83;;;;;;;14.77;49.99;101267.66;5034150;28;20449;-64
2021/03/29 09:34:53;;;;;;;6.38;1.70;;;;;;;14.82;49.69;101259.38;5035365;28;20104;-64
2021/03/29 09:37:23;;;;;;;7.50;1.80;;;;;;;14.86;49.51;101268.69;5033533;28;20083;-64
2021/03/29 09:39:56;;;;;;;6.10;1.70;;;;;;;14.89;49.24;101257.13;5034722;28;20044;-64
2021/03/29 09:42:49;;;;;;;8.27;2.60;;;;;;;14.72;48.79;101232.00;5047999;28;20091;-64
2021/03/29 09:45:27;;;;;;;10.13;2.30;;;;;;;14.95;48.75;101266.13;5035615;28;20082;-64
2021/03/29 09:48:06;;;;;;;5.72;1.83;;;;;;;14.98;48.56;101264.75;5035385;28;20053;-64
2021/03/29 09:50:38;;;;;;;6.05;1.85;;;;;;;15.00;48.42;101257.03;5036861;28;20084;-66
2021/03/29 09:53:24;;;;;;;6.05;1.73;;;;;;;15.04;48.42;101242.44;5039071;28;20040;-65
2021/03/29 09:55:51;;;;;;;10.18;1.70;;;;;;;15.05;48.43;101257.81;5038726;28;20022;-64
2021/03/29 09:58:36;;;;;;;6.43;1.70;;;;;;;15.10;48.43;101254.22;5039025;28;20060;-66
2021/03/29 10:01:25;;;;;;;6.10;1.77;;;;;;;15.16;48.49;101250.31;5039191;28;20036;-65
2021/03/29 10:03:55;;;;;;;6.88;1.83;;;;;;;15.18;48.60;101258.25;5039185;28;20112;-65
2021/03/29 10:06:21;;;;;;;5.60;1.60;;;;;;;15.25;48.56;101258.72;5038810;28;20057;-64
2021/03/29 10:08:58;;;;;;;4.88;1.83;;;;;;;15.33;47.99;101246.31;5038922;28;20064;-65
2021/03/29 10:11:24;;;;;;;6.95;1.70;;;;;;;15.38;47.86;101260.81;5038524;28;20076;-64
2021/03/29 10:13:50;;;;;;;5.32;2.05;;;;;;;15.32;47.66;101244.66;5050242;28;20032;-64
2021/03/29 10:16:19;;;;;;;7.05;1.80;;;;;;;15.50;46.84;101260.44;5042669;28;20082;-66
2021/03/29 10:18:45;;;;;;;7.05;1.73;;;;;;;15.54;46.02;101263.41;5038758;28;20026;-64
2021/03/29 10:21:12;;;;;;;9.07;2.20;;;;;;;15.57;45.86;101249.09;5038498;28;20479;-64
2021/03/29 10:23:41;;;;;;;14.82;1.95;;;;;;;15.51;45.68;101248.31;5037862;28;20448;-61
2021/03/29 10:26:34;;;;;;;6.18;1.80;;;;;;;15.68;45.50;101264.34;5037565;28;20072;-64
2021/03/29 10:28:59;;;;;;;6.60;1.90;;;;;;;15.70;45.64;101264.06;5038601;28;20069;-64
2021/03/29 10:31:26;;;;;;;7.13;2.38;;;;;;;15.73;45.29;101255.22;5038352;28;20034;-64
2021/03/29 10:33:52;;;;;;;9.00;1.90;;;;;;;15.72;45.14;101253.59;5038094;28;20033;-65
2021/03/29 10:36:20;;;;;;;7.35;1.60;;;;;;;15.81;45.32;101254.59;5038206;28;20033;-65
2021/03/29 10:38:46;;;;;;;3.75;1.52;;;;;;;15.79;45.17;101262.28;5037687;28;20040;-64
2021/03/29 10:41:11;;;;;;;8.80;1.98;;;;;;;15.91;45.30;101263.84;5038012;28;20100;-65
2021/03/29 10:43:38;;;;;;;5.45;1.75;;;;;;;15.88;45.35;101241.31;5051485;28;20032;-64
2021/03/29 10:46:04;;;;;;;8.35;1.70;;;;;;;16.01;45.33;101264.53;5037651;28;20112;-64
2021/03/29 10:48:29;;;;;;;6.88;1.65;;;;;;;16.04;44.86;101252.97;5037994;28;20108;-64
2021/03/29 10:50:55;;;;;;;5.72;2.17;;;;;;;16.11;44.65;101249.03;5041414;28;20049;-64
2021/03/29 10:53:20;;;;;;;7.35;1.88;;;;;;;16.15;44.91;101255.59;5040411;28;20064;-64
2021/03/29 10:55:45;;;;;;;6.65;1.60;;;;;;;16.21;44.48;101251.66;5037346;28;20029;-66
2021/03/29 10:58:11;;;;;;;7.22;1.77;;;;;;;16.25;44.22;101254.63;5037872;28;20028;-64
2021/03/29 11:00:36;;;;;;;4.40;1.50;;;;;;;16.29;44.25;101248.22;5037580;28;20493;-64
2021/03/29 11:03:02;;;;;;;5.82;1.75;;;;;;;16.33;44.14;101235.50;5037796;28;20025;-66
2021/03/29 11:05:27;;;;;;;6.22;1.77;;;;;;;16.39;44.14;101232.69;5037839;28;20079;-64
2021/03/29 11:07:52;;;;;;;4.88;1.70;;;;;;;16.44;43.91;101236.19;5037448;28;20437;-65
2021/03/29 11:10:18;;;;;;;9.32;1.75;;;;;;;16.49;43.67;101236.09;5036730;28;20029;-64
2021/03/29 11:12:43;;;;;;;5.43;2.13;;;;;;;16.57;43.77;101237.34;5036952;28;20044;-64
2021/03/29 11:15:10;;;;;;;5.22;1.73;;;;;;;16.63;43.34;101240.84;5035862;28;20116;-64
2021/03/29 11:17:37;;;;;;;7.57;1.90;;;;;;;16.67;43.04;101231.69;5035185;28;20036;-64
2021/03/29 11:20:04;;;;;;;7.10;1.92;;;;;;;16.73;43.08;101239.91;5032179;28;20068;-65
2021/03/29 11:22:30;;;;;;;9.07;1.90;;;;;;;16.74;42.88;101224.97;5037104;28;20089;-67
2021/03/29 11:24:55;;;;;;;3.90;1.60;;;;;;;16.75;43.12;101224.69;5039551;28;20029;-64
2021/03/29 11:27:21;;;;;;;5.50;2.10;;;;;;;16.92;42.76;101242.59;5036478;28;20067;-65
2021/03/29 11:29:46;;;;;;;6.20;1.63;;;;;;;16.89;42.60;101223.91;5030323;28;20056;-66
2021/03/29 11:32:12;;;;;;;6.80;1.80;;;;;;;17.02;42.46;101247.16;5036391;28;20089;-65
2021/03/29 11:34:37;;;;;;;3.63;1.83;;;;;;;17.06;42.51;101231.66;5037101;28;20038;-64
2021/03/29 11:37:03;;;;;;;6.38;1.60;;;;;;;17.12;42.57;101217.47;5035470;28;20044;-65